Time;durP1;ratioP1;P1;durP2;ratioP2;P2;SDS_P1;SDS_P2;PMS_P1;PMS_P2;Temp;Humidity;BMP_temperature;BMP_pressure;BME280_temperature;BME280_humidity;BME280_pressure;Samples;Min_cycle;Max_cycle;Signal;HPM_P1;HPM_P2
2023/01/12 00:02:06;;;;;;;;;;;17.80;49.80;;;;;;10246108;28;862;-72
2023/01/12 00:07:01;;;;;;;;;;;17.80;49.70;;;;;;10245980;28;970;-72
2023/01/12 00:11:57;;;;;;;;;;;17.80;49.70;;;;;;10245991;28;1902;-72
2023/01/12 00:16:52;;;;;;;;;;;17.80;49.60;;;;;;10245048;28;893;-72
2023/01/12 00:26:58;;;;;;;;;;;17.80;49.70;;;;;;10245915;28;793;-72
2023/01/12 00:31:53;;;;;;;;;;;17.80;49.60;;;;;;10245867;28;1930;-72
2023/01/12 00:36:49;;;;;;;;;;;17.70;49.50;;;;;;10244377;28;1421;-72
2023/01/12 00:46:58;;;;;;;;;;;17.70;49.70;;;;;;10243316;28;609;-72
2023/01/12 00:51:53;;;;;;;;;;;17.70;49.80;;;;;;10244422;28;1979;-72
2023/01/12 00:56:49;;;;;;;;;;;17.70;49.60;;;;;;10244974;28;861;-72
2023/01/12 01:01:44;;;;;;;;;;;17.70;49.80;;;;;;10244889;28;1028;-72
2023/01/12 01:06:43;;;;;;;;;;;17.70;49.80;;;;;;10245001;28;902;-72
2023/01/12 01:11:38;;;;;;;;;;;17.70;49.70;;;;;;10243984;28;1967;-72
2023/01/12 01:16:33;;;;;;;;;;;17.70;49.90;;;;;;10243550;28;988;-72
2023/01/12 01:21:29;;;;;;;;;;;17.70;49.80;;;;;;10243870;28;869;-72
2023/01/12 01:26:24;;;;;;;;;;;17.60;49.90;;;;;;10243790;28;984;-72
2023/01/12 01:31:19;;;;;;;;;;;17.60;49.80;;;;;;10243045;28;1902;-72
2023/01/12 01:36:15;;;;;;;;;;;17.60;49.90;;;;;;10244114;28;1165;-72
2023/01/12 01:41:10;;;;;;;;;;;17.60;49.90;;;;;;10243518;28;845;-72
2023/01/12 01:46:05;;;;;;;;;;;17.60;49.80;;;;;;10243974;28;944;-72
2023/01/12 01:51:01;;;;;;;;;;;17.60;50.00;;;;;;10242676;28;1914;-72
2023/01/12 01:55:57;;;;;;;;;;;17.60;49.80;;;;;;10246296;28;795;-72
2023/01/12 02:00:53;;;;;;;;;;;17.60;50.00;;;;;;10250810;28;842;-72
2023/01/12 02:05:48;;;;;;;;;;;17.60;50.00;;;;;;10251742;28;899;-72
2023/01/12 02:10:43;;;;;;;;;;;17.60;49.90;;;;;;10250381;28;1960;-72
2023/01/12 02:20:53;;;;;;;;;;;17.60;50.00;;;;;;10250177;28;605;-72
2023/01/12 02:25:48;;;;;;;;;;;17.60;50.00;;;;;;10249905;28;878;-72
2023/01/12 02:30:45;;;;;;;;;;;17.70;50.00;;;;;;10249730;28;1898;-72
2023/01/12 02:35:40;;;;;;;;;;;17.60;50.00;;;;;;10249325;28;1256;-72
2023/01/12 02:40:35;;;;;;;;;;;17.60;50.00;;;;;;10250591;28;868;-72
2023/01/12 02:45:31;;;;;;;;;;;17.60;50.00;;;;;;10249199;28;902;-72
2023/01/12 02:50:26;;;;;;;;;;;17.60;50.00;;;;;;10249515;28;1910;-72
2023/01/12 02:55:21;;;;;;;;;;;17.60;49.90;;;;;;10248843;28;850;-72
2023/01/12 03:00:17;;;;;;;;;;;17.60;50.00;;;;;;10249350;28;947;-72
2023/01/12 03:05:12;;;;;;;;;;;17.60;50.00;;;;;;10248492;28;855;-72
2023/01/12 03:10:08;;;;;;;;;;;17.60;50.00;;;;;;10247167;28;1959;-72
2023/01/12 03:15:03;;;;;;;;;;;17.60;50.00;;;;;;10248616;28;857;-72
2023/01/12 03:19:58;;;;;;;;;;;17.60;50.00;;;;;;10248608;28;940;-72
2023/01/12 03:24:54;;;;;;;;;;;17.50;50.00;;;;;;10247718;28;822;-72
2023/01/12 03:29:49;;;;;;;;;;;17.50;50.00;;;;;;10248030;28;1957;-72
2023/01/12 03:34:44;;;;;;;;;;;17.60;50.10;;;;;;10247712;28;1114;-72
2023/01/12 03:39:40;;;;;;;;;;;17.60;50.10;;;;;;10247681;28;873;-72
2023/01/12 03:44:35;;;;;;;;;;;17.60;50.00;;;;;;10246340;28;893;-72
2023/01/12 03:49:30;;;;;;;;;;;17.60;50.10;;;;;;10246632;28;2058;-72
2023/01/12 03:54:26;;;;;;;;;;;17.60;50.10;;;;;;10245931;28;806;-72
2023/01/12 03:59:21;;;;;;;;;;;17.60;50.10;;;;;;10246304;28;800;-72
2023/01/12 04:04:17;;;;;;;;;;;17.60;50.10;;;;;;10246162;28;932;-72
2023/01/12 04:09:12;;;;;;;;;;;17.50;50.00;;;;;;10245931;28;1046;-72
2023/01/12 04:14:07;;;;;;;;;;;17.60;50.10;;;;;;10245733;28;1906;-72
2023/01/12 04:19:03;;;;;;;;;;;17.50;50.00;;;;;;10245422;28;800;-73
2023/01/12 04:23:59;;;;;;;;;;;17.50;50.20;;;;;;10244243;28;760;-72
2023/01/12 04:28:54;;;;;;;;;;;17.50;50.10;;;;;;10245149;28;957;-72
2023/01/12 04:33:50;;;;;;;;;;;17.50;50.20;;;;;;10245828;28;1902;-72
2023/01/12 04:38:45;;;;;;;;;;;17.50;50.20;;;;;;10244993;28;785;-72
2023/01/12 04:43:41;;;;;;;;;;;17.60;50.30;;;;;;10244699;28;1016;-72
2023/01/12 04:48:39;;;;;;;;;;;17.60;50.50;;;;;;10244689;28;787;-72
2023/01/12 04:53:34;;;;;;;;;;;17.60;50.60;;;;;;10245024;28;1910;-72
2023/01/12 04:58:30;;;;;;;;;;;17.60;50.60;;;;;;10244387;28;833;-72
2023/01/12 05:03:25;;;;;;;;;;;17.60;50.80;;;;;;10244455;28;987;-71
2023/01/12 05:13:34;;;;;;;;;;;17.60;51.00;;;;;;10243791;28;1983;-72
2023/01/12 05:18:32;;;;;;;;;;;17.60;51.10;;;;;;10244610;28;786;-71
2023/01/12 05:23:27;;;;;;;;;;;17.60;51.10;;;;;;10243875;28;878;-75
2023/01/12 05:28:23;;;;;;;;;;;17.60;51.00;;;;;;10243718;28;860;-73
2023/01/12 05:33:19;;;;;;;;;;;17.60;50.90;;;;;;10249952;28;1965;-73
2023/01/12 05:38:14;;;;;;;;;;;17.70;50.90;;;;;;10251484;28;933;-73
2023/01/12 05:48:24;;;;;;;;;;;17.70;50.60;;;;;;10251608;28;604;-73
2023/01/12 05:53:19;;;;;;;;;;;17.80;50.60;;;;;;10252060;28;1971;-72
2023/01/12 05:58:14;;;;;;;;;;;17.70;50.40;;;;;;10251609;28;842;-72
2023/01/12 06:03:10;;;;;;;;;;;17.70;50.50;;;;;;10250835;28;844;-73
2023/01/12 06:08:05;;;;;;;;;;;17.80;50.70;;;;;;10251282;28;828;-73
2023/01/12 06:18:16;;;;;;;;;;;17.80;50.60;;;;;;10249914;28;596;-73
2023/01/12 06:23:11;;;;;;;;;;;17.70;50.50;;;;;;10250151;28;793;-73
2023/01/12 06:28:06;;;;;;;;;;;17.80;50.40;;;;;;10249878;28;937;-73
2023/01/12 06:33:02;;;;;;;;;;;17.80;50.30;;;;;;10249948;28;1910;-73
2023/01/12 06:37:57;;;;;;;;;;;17.80;50.40;;;;;;10250174;28;896;-73
2023/01/12 06:42:53;;;;;;;;;;;17.80;50.50;;;;;;10249693;28;875;-73
2023/01/12 06:47:49;;;;;;;;;;;17.80;50.10;;;;;;10250039;28;926;-73
2023/01/12 06:52:44;;;;;;;;;;;17.80;50.30;;;;;;10248889;28;1906;-73
2023/01/12 06:57:40;;;;;;;;;;;17.80;50.00;;;;;;10249532;28;822;-73
2023/01/12 07:02:35;;;;;;;;;;;17.80;50.00;;;;;;10248576;28;841;-73
2023/01/12 07:07:30;;;;;;;;;;;17.80;49.90;;;;;;10248439;28;776;-73
2023/01/12 07:12:26;;;;;;;;;;;17.70;50.00;;;;;;10248744;28;1906;-73
2023/01/12 07:17:21;;;;;;;;;;;17.70;50.00;;;;;;10248892;28;830;-73
2023/01/12 07:22:16;;;;;;;;;;;17.70;50.00;;;;;;10247876;28;945;-73
2023/01/12 07:27:12;;;;;;;;;;;17.70;50.10;;;;;;10247053;28;855;-73
2023/01/12 07:32:07;;;;;;;;;;;17.70;50.00;;;;;;10247489;28;1915;-73
2023/01/12 07:37:02;;;;;;;;;;;17.70;50.10;;;;;;10247265;28;939;-73
2023/01/12 07:47:12;;;;;;;;;;;17.70;50.00;;;;;;10247054;28;660;-73
2023/01/12 07:52:07;;;;;;;;;;;17.80;49.90;;;;;;10246696;28;1914;-73
2023/01/12 07:57:03;;;;;;;;;;;17.80;50.00;;;;;;10246485;28;807;-73
2023/01/12 08:01:58;;;;;;;;;;;17.80;50.00;;;;;;10246397;28;1032;-73
2023/01/12 08:06:53;;;;;;;;;;;17.80;49.90;;;;;;10246208;28;821;-73
2023/01/12 08:11:49;;;;;;;;;;;17.80;49.90;;;;;;10245900;28;1894;-73
2023/01/12 08:16:44;;;;;;;;;;;17.90;50.00;;;;;;10246385;28;830;-73
2023/01/12 08:21:44;;;;;;;;;;;17.80;49.90;;;;;;10245613;28;805;-73
2023/01/12 08:26:40;;;;;;;;;;;17.80;50.00;;;;;;10245413;28;832;-73
2023/01/12 08:31:35;;;;;;;;;;;17.90;49.90;;;;;;10245218;28;1894;-73
2023/01/12 08:36:30;;;;;;;;;;;17.90;50.00;;;;;;10245922;28;1942;-73
2023/01/12 08:41:32;;;;;;;;;;;17.90;50.10;;;;;;10244896;28;798;-72
2023/01/12 08:46:28;;;;;;;;;;;17.90;50.30;;;;;;10244775;28;881;-73
2023/01/12 08:51:23;;;;;;;;;;;17.90;50.30;;;;;;10244557;28;1974;-73
2023/01/12 08:56:18;;;;;;;;;;;17.90;50.50;;;;;;10244485;28;875;-71
2023/01/12 09:01:15;;;;;;;;;;;17.90;50.60;;;;;;10244305;28;885;-75
2023/01/12 09:06:10;;;;;;;;;;;17.90;50.50;;;;;;10243458;28;818;-76
2023/01/12 09:11:06;;;;;;;;;;;17.70;50.70;;;;;;10244047;28;1967;-75
2023/01/12 09:16:01;;;;;;;;;;;17.60;50.90;;;;;;10243924;28;878;-75
2023/01/12 09:20:56;;;;;;;;;;;17.50;51.00;;;;;;10244544;28;787;-75
2023/01/12 09:25:52;;;;;;;;;;;17.50;51.00;;;;;;10244434;28;870;-75
2023/01/12 09:30:47;;;;;;;;;;;17.50;51.10;;;;;;10243699;28;1898;-75
2023/01/12 09:35:43;;;;;;;;;;;17.50;51.20;;;;;;10244077;28;1295;-75
2023/01/12 09:40:38;;;;;;;;;;;17.50;51.20;;;;;;10243507;28;863;-76
2023/01/12 09:50:48;;;;;;;;;;;17.50;51.20;;;;;;10242943;28;1910;-75
2023/01/12 09:55:43;;;;;;;;;;;17.40;51.30;;;;;;10243297;28;886;-75
2023/01/12 10:00:38;;;;;;;;;;;17.40;51.20;;;;;;10243235;28;885;-75
2023/01/12 10:05:34;;;;;;;;;;;17.40;51.30;;;;;;10243198;28;806;-75
2023/01/12 10:10:29;;;;;;;;;;;17.40;51.40;;;;;;10243011;28;1906;-75
2023/01/12 10:15:24;;;;;;;;;;;17.40;51.40;;;;;;10243328;28;767;-76
2023/01/12 10:20:20;;;;;;;;;;;17.40;51.50;;;;;;10250837;28;934;-76
2023/01/12 10:25:15;;;;;;;;;;;17.40;51.50;;;;;;10249783;28;786;-77
2023/01/12 10:30:11;;;;;;;;;;;17.40;51.50;;;;;;10248934;28;1906;-75
2023/01/12 10:35:06;;;;;;;;;;;17.40;51.50;;;;;;10249175;28;1263;-77
2023/01/12 10:40:01;;;;;;;;;;;17.40;51.60;;;;;;10249994;28;960;-75
2023/01/12 10:44:57;;;;;;;;;;;17.40;51.60;;;;;;10249222;28;1033;-77
2023/01/12 10:49:52;;;;;;;;;;;17.40;51.60;;;;;;10248773;28;1910;-76
2023/01/12 10:54:47;;;;;;;;;;;17.40;51.60;;;;;;10249239;28;934;-77
2023/01/12 10:59:43;;;;;;;;;;;17.40;51.70;;;;;;10248505;28;985;-76
2023/01/12 11:04:38;;;;;;;;;;;17.40;51.70;;;;;;10248721;28;926;-76
2023/01/12 11:09:34;;;;;;;;;;;17.40;51.70;;;;;;10248213;28;814;-76
2023/01/12 11:14:29;;;;;;;;;;;17.30;51.70;;;;;;10248455;28;1906;-76
2023/01/12 11:19:24;;;;;;;;;;;17.30;51.70;;;;;;10247754;28;887;-76
2023/01/12 11:24:20;;;;;;;;;;;17.30;51.80;;;;;;10248222;28;887;-75
2023/01/12 11:29:15;;;;;;;;;;;17.40;51.80;;;;;;10246490;28;946;-76
2023/01/12 11:34:10;;;;;;;;;;;17.40;51.80;;;;;;10247731;28;1965;-77
2023/01/12 11:39:06;;;;;;;;;;;17.30;51.90;;;;;;10246420;28;865;-75
2023/01/12 11:44:01;;;;;;;;;;;17.30;51.90;;;;;;10247102;28;821;-77
2023/01/12 11:48:56;;;;;;;;;;;17.40;51.90;;;;;;10246089;28;1000;-76
2023/01/12 11:53:52;;;;;;;;;;;17.40;52.00;;;;;;10246429;28;2014;-76
2023/01/12 11:58:47;;;;;;;;;;;17.40;51.90;;;;;;10246793;28;787;-76
2023/01/12 12:03:43;;;;;;;;;;;17.40;52.10;;;;;;10246720;28;782;-74
2023/01/12 12:08:38;;;;;;;;;;;17.30;52.00;;;;;;10246565;28;793;-77
2023/01/12 12:13:34;;;;;;;;;;;17.40;52.60;;;;;;10246106;28;1914;-77
2023/01/12 12:18:29;;;;;;;;;;;17.30;52.10;;;;;;10245458;28;759;-76
2023/01/12 12:23:25;;;;;;;;;;;17.30;52.10;;;;;;10245362;28;950;-76
2023/01/12 12:28:20;;;;;;;;;;;17.30;52.10;;;;;;10245115;28;763;-76
2023/01/12 12:33:15;;;;;;;;;;;17.30;52.20;;;;;;10244908;28;1901;-75
2023/01/12 12:38:11;;;;;;;;;;;17.30;52.20;;;;;;10244594;28;941;-76
2023/01/12 12:48:20;;;;;;;;;;;17.30;52.20;;;;;;10244069;28;652;-76
2023/01/12 12:53:15;;;;;;;;;;;17.30;52.20;;;;;;10244103;28;1926;-76
2023/01/12 12:58:11;;;;;;;;;;;17.30;52.30;;;;;;10244162;28;934;-76
2023/01/12 13:03:06;;;;;;;;;;;17.30;52.20;;;;;;10243373;28;913;-79
2023/01/12 13:08:02;;;;;;;;;;;17.30;52.30;;;;;;10244469;28;871;-76
2023/01/12 13:12:57;;;;;;;;;;;17.30;52.40;;;;;;10243744;28;1976;-76
2023/01/12 13:17:53;;;;;;;;;;;17.30;52.30;;;;;;10243782;28;766;-75
2023/01/12 13:22:48;;;;;;;;;;;17.30;52.30;;;;;;10243706;28;780;-76
2023/01/12 13:27:43;;;;;;;;;;;17.30;52.40;;;;;;10243037;28;794;-76
2023/01/12 13:32:39;;;;;;;;;;;17.30;52.30;;;;;;10244203;28;1898;-76
2023/01/12 13:37:34;;;;;;;;;;;17.30;52.40;;;;;;10244080;28;1017;-76
2023/01/12 13:47:44;;;;;;;;;;;17.30;52.40;;;;;;10243415;28;707;-76
2023/01/12 13:52:39;;;;;;;;;;;17.30;52.40;;;;;;10247417;28;1906;-80
2023/01/12 13:57:36;;;;;;;;;;;17.30;52.40;;;;;;10250218;28;1097;-76
2023/01/12 14:02:31;;;;;;;;;;;17.30;52.50;;;;;;10250753;28;1037;-77
2023/01/12 14:07:27;;;;;;;;;;;17.20;52.50;;;;;;10250547;28;897;-76
2023/01/12 14:12:22;;;;;;;;;;;17.20;52.50;;;;;;10250524;28;1914;-77
2023/01/12 14:22:31;;;;;;;;;;;17.30;52.60;;;;;;10250087;28;656;-72
2023/01/12 14:27:27;;;;;;;;;;;17.50;53.20;;;;;;10249790;28;776;-71
2023/01/12 14:32:22;;;;;;;;;;;17.60;53.20;;;;;;10249899;28;1902;-72
2023/01/12 14:37:17;;;;;;;;;;;17.70;53.40;;;;;;10250181;28;869;-71
2023/01/12 14:47:27;;;;;;;;;;;17.70;53.40;;;;;;10248574;28;613;-71
2023/01/12 14:52:22;;;;;;;;;;;17.70;53.30;;;;;;10249024;28;1902;-71
2023/01/12 14:57:17;;;;;;;;;;;17.70;53.30;;;;;;10248679;28;866;-72
2023/01/12 15:02:13;;;;;;;;;;;17.70;53.30;;;;;;10247277;28;793;-70
2023/01/12 15:07:08;;;;;;;;;;;17.70;53.30;;;;;;10248525;28;834;-71
2023/01/12 15:12:04;;;;;;;;;;;17.70;53.30;;;;;;10249110;28;1898;-71
2023/01/12 15:27:27;;;;;;;;;;;17.80;53.30;;;;;;10247884;28;616;-70
2023/01/12 15:32:22;;;;;;;;;;;17.80;53.30;;;;;;10247672;28;1907;-70
2023/01/12 15:37:18;;;;;;;;;;;17.80;53.40;;;;;;10247496;28;786;-70
2023/01/12 15:42:16;;;;;;;;;;;17.80;53.60;;;;;;10247254;28;798;-70
2023/01/12 15:47:12;;;;;;;;;;;17.80;54.60;;;;;;10247596;28;842;-69
2023/01/12 15:52:07;;;;;;;;;;;17.90;55.10;;;;;;10247385;28;1983;-70
2023/01/12 15:57:02;;;;;;;;;;;17.80;55.20;;;;;;10246675;28;945;-70
2023/01/12 16:01:58;;;;;;;;;;;17.90;55.20;;;;;;10247025;28;841;-70
2023/01/12 16:06:53;;;;;;;;;;;17.90;55.20;;;;;;10244835;28;953;-70
2023/01/12 16:11:48;;;;;;;;;;;17.90;54.80;;;;;;10246031;28;1969;-70
2023/01/12 16:16:44;;;;;;;;;;;17.90;54.60;;;;;;10246220;28;861;-70
2023/01/12 16:21:39;;;;;;;;;;;17.80;54.60;;;;;;10246274;28;891;-70
2023/01/12 16:26:35;;;;;;;;;;;17.90;54.40;;;;;;10246269;28;842;-70
2023/01/12 16:31:30;;;;;;;;;;;17.90;54.20;;;;;;10245290;28;1973;-68
2023/01/12 16:36:25;;;;;;;;;;;17.80;54.20;;;;;;10246400;28;1415;-70
2023/01/12 16:41:21;;;;;;;;;;;17.80;54.30;;;;;;10245066;28;853;-70
2023/01/12 16:46:16;;;;;;;;;;;17.80;54.20;;;;;;10244813;28;866;-73
2023/01/12 16:51:12;;;;;;;;;;;17.80;54.20;;;;;;10245197;28;1913;-73
2023/01/12 16:56:08;;;;;;;;;;;17.80;54.20;;;;;;10244549;28;1032;-73
2023/01/12 17:01:03;;;;;;;;;;;17.80;54.30;;;;;;10244403;28;986;-74
2023/01/12 17:05:58;;;;;;;;;;;17.90;54.30;;;;;;10244403;28;791;-74
2023/01/12 17:10:54;;;;;;;;;;;17.90;54.30;;;;;;10244160;28;1973;-74
2023/01/12 17:15:49;;;;;;;;;;;17.90;54.30;;;;;;10244676;28;924;-74
2023/01/12 17:20:45;;;;;;;;;;;17.90;54.20;;;;;;10244053;28;777;-71
2023/01/12 17:25:40;;;;;;;;;;;17.90;54.00;;;;;;10245715;28;853;-70
2023/01/12 17:30:35;;;;;;;;;;;17.90;54.10;;;;;;10251781;28;1956;-74
2023/01/12 17:35:31;;;;;;;;;;;17.90;54.10;;;;;;10252899;28;1235;-74
2023/01/12 17:40:27;;;;;;;;;;;17.90;54.00;;;;;;10252474;28;908;-74
2023/01/12 17:45:22;;;;;;;;;;;17.90;54.00;;;;;;10252451;28;810;-74
2023/01/12 17:50:18;;;;;;;;;;;18.00;54.00;;;;;;10252017;28;1984;-74
2023/01/12 17:55:13;;;;;;;;;;;17.90;53.90;;;;;;10251378;28;865;-68
2023/01/12 18:00:09;;;;;;;;;;;18.00;53.90;;;;;;10251564;28;805;-69
2023/01/12 18:05:04;;;;;;;;;;;17.90;53.90;;;;;;10250889;28;1167;-74
2023/01/12 18:09:59;;;;;;;;;;;17.90;54.00;;;;;;10251348;28;1957;-72
2023/01/12 18:14:55;;;;;;;;;;;17.90;54.00;;;;;;10251177;28;876;-74
2023/01/12 18:19:50;;;;;;;;;;;17.90;54.10;;;;;;10250354;28;928;-74
2023/01/12 18:24:46;;;;;;;;;;;17.90;54.00;;;;;;10250809;28;962;-74
2023/01/12 18:29:41;;;;;;;;;;;18.00;54.00;;;;;;10249446;28;857;-74
2023/01/12 18:34:38;;;;;;;;;;;18.00;53.90;;;;;;10249691;28;1910;-74
2023/01/12 18:39:33;;;;;;;;;;;17.90;53.70;;;;;;10250008;28;826;-74
2023/01/12 18:44:30;;;;;;;;;;;17.90;53.80;;;;;;10249701;28;783;-74
2023/01/12 18:49:25;;;;;;;;;;;17.90;53.70;;;;;;10249250;28;950;-74
2023/01/12 18:54:21;;;;;;;;;;;17.90;54.20;;;;;;10249069;28;1910;-74
2023/01/12 18:59:16;;;;;;;;;;;18.00;53.70;;;;;;10248325;28;912;-74
2023/01/12 19:04:14;;;;;;;;;;;18.00;53.70;;;;;;10248773;28;972;-74
2023/01/12 19:19:37;;;;;;;;;;;18.00;53.50;;;;;;10247725;28;507;-67
2023/01/12 19:29:47;;;;;;;;;;;17.90;53.60;;;;;;10247274;28;651;-69
2023/01/12 19:34:42;;;;;;;;;;;17.90;53.70;;;;;;10248402;28;1982;-69
2023/01/12 19:44:36;;;;;;;;;;;17.80;54.00;;;;;;10246591;28;975;-73
2023/01/12 19:49:31;;;;;;;;;;;17.70;54.10;;;;;;10247734;28;841;-73
2023/01/12 19:54:27;;;;;;;;;;;17.60;54.20;;;;;;10246703;28;1977;-73
2023/01/12 19:59:22;;;;;;;;;;;17.60;54.20;;;;;;10246670;28;864;-73
2023/01/12 20:04:17;;;;;;;;;;;17.60;54.20;;;;;;10247753;28;937;-73
2023/01/12 20:09:13;;;;;;;;;;;17.60;54.10;;;;;;10246845;28;876;-73
2023/01/12 20:14:08;;;;;;;;;;;17.60;54.20;;;;;;10246640;28;1902;-73
2023/01/12 20:19:03;;;;;;;;;;;17.60;54.10;;;;;;10246452;28;989;-73
2023/01/12 20:24:00;;;;;;;;;;;17.60;54.00;;;;;;10245076;28;1299;-73
2023/01/12 20:28:55;;;;;;;;;;;17.60;53.90;;;;;;10246021;28;973;-73
2023/01/12 20:33:51;;;;;;;;;;;17.60;54.00;;;;;;10245499;28;1969;-73
2023/01/12 20:38:46;;;;;;;;;;;17.60;54.00;;;;;;10245083;28;997;-73
2023/01/12 20:43:41;;;;;;;;;;;17.60;53.90;;;;;;10244960;28;1130;-73
2023/01/12 20:48:37;;;;;;;;;;;17.60;53.90;;;;;;10244830;28;821;-73
2023/01/12 20:53:32;;;;;;;;;;;17.60;53.90;;;;;;10244788;28;1906;-73
2023/01/12 20:58:28;;;;;;;;;;;17.50;53.90;;;;;;10245168;28;976;-73
2023/01/12 21:03:23;;;;;;;;;;;17.50;53.90;;;;;;10244400;28;820;-73
2023/01/12 21:08:18;;;;;;;;;;;17.50;53.90;;;;;;10244990;28;933;-73
2023/01/12 21:13:14;;;;;;;;;;;17.50;54.00;;;;;;10244069;28;1961;-73
2023/01/12 21:18:09;;;;;;;;;;;17.40;53.90;;;;;;10244116;28;875;-73
2023/01/12 21:23:05;;;;;;;;;;;17.50;53.90;;;;;;10244613;28;865;-73
2023/01/12 21:28:00;;;;;;;;;;;17.40;53.80;;;;;;10244507;28;846;-73
2023/01/12 21:32:55;;;;;;;;;;;17.40;53.90;;;;;;10243747;28;1960;-73
2023/01/12 21:37:51;;;;;;;;;;;17.40;53.90;;;;;;10244483;28;766;-73
2023/01/12 21:48:00;;;;;;;;;;;17.40;53.90;;;;;;10243171;28;664;-73
2023/01/12 21:52:56;;;;;;;;;;;17.40;53.90;;;;;;10243426;28;1918;-73
2023/01/12 21:57:51;;;;;;;;;;;17.40;53.90;;;;;;10243370;28;763;-73
2023/01/12 22:02:47;;;;;;;;;;;17.40;53.90;;;;;;10243324;28;979;-73
2023/01/12 22:07:42;;;;;;;;;;;17.40;53.90;;;;;;10243213;28;821;-73
2023/01/12 22:12:37;;;;;;;;;;;17.40;53.80;;;;;;10246239;28;1961;-73
2023/01/12 22:17:33;;;;;;;;;;;17.40;53.80;;;;;;10251119;28;877;-73
2023/01/12 22:22:28;;;;;;;;;;;17.40;53.90;;;;;;10249716;28;737;-73
2023/01/12 22:27:23;;;;;;;;;;;17.40;53.90;;;;;;10250174;28;786;-73
2023/01/12 22:32:19;;;;;;;;;;;17.40;53.90;;;;;;10250768;28;1971;-73
2023/01/12 22:37:14;;;;;;;;;;;17.40;53.90;;;;;;10250690;28;913;-73
2023/01/12 22:42:09;;;;;;;;;;;17.40;54.00;;;;;;10249158;28;1015;-73
2023/01/12 22:47:05;;;;;;;;;;;17.30;53.80;;;;;;10249978;28;805;-73
2023/01/12 22:52:00;;;;;;;;;;;17.40;53.80;;;;;;10249766;28;1981;-73
2023/01/12 22:56:56;;;;;;;;;;;17.40;53.90;;;;;;10249712;28;812;-73
2023/01/12 23:01:51;;;;;;;;;;;17.30;53.80;;;;;;10248757;28;1028;-73
2023/01/12 23:06:46;;;;;;;;;;;17.30;53.80;;;;;;10248755;28;910;-73
2023/01/12 23:11:42;;;;;;;;;;;17.30;53.80;;;;;;10247906;28;1902;-73
2023/01/12 23:16:37;;;;;;;;;;;17.40;53.90;;;;;;10248343;28;786;-73
2023/01/12 23:21:32;;;;;;;;;;;17.40;53.90;;;;;;10249379;28;888;-73
2023/01/12 23:26:29;;;;;;;;;;;17.30;53.80;;;;;;10246835;28;1003;-73
2023/01/12 23:31:25;;;;;;;;;;;17.30;53.80;;;;;;10247702;28;1963;-73
2023/01/12 23:36:20;;;;;;;;;;;17.30;53.80;;;;;;10247833;28;1394;-73
2023/01/12 23:41:17;;;;;;;;;;;17.40;53.90;;;;;;10247402;28;783;-73
2023/01/12 23:46:12;;;;;;;;;;;17.30;53.80;;;;;;10247763;28;829;-73
2023/01/12 23:51:07;;;;;;;;;;;17.30;53.90;;;;;;10247725;28;1918;-73
2023/01/12 23:56:03;;;;;;;;;;;17.30;53.80;;;;;;10246846;28;879;-73
